KBBD/BBD METAR and TAF weather

Enter ICAO airport designator
Station Type Date Time Source
KBBD METAR 2019/06/16 07:35 UTC NOAA

KBBD 160735Z AUTO 13009KT 10SM CLR 26/21 A2980 RMK AO2


Station Type Date Time Source
KBBD Decoded METAR 2019/06/16 07:35 UTC NOAA

Brady, Curtis Field Airport, TX, United States (KBBD) 31-10-45N 099-19-26W
Jun 16, 2019 - 03:35 AM EDT / 2019.06.16 0735 UTC
Wind: from the SE (130 degrees) at 10 MPH (9 KT):0
Visibility: 10 mile(s):0
Sky conditions: clear
Temperature: 78 F (26 C)
Dew Point: 69 F (21 C)
Relative Humidity: 73%
Pressure (altimeter): 29.8 in. Hg (1009 hPa)
ob: KBBD 160735Z AUTO 13009KT 10SM CLR 26/21 A2980 RMK AO2
cycle: 7

Station Type Date Time Source
KBBD TAF 2019/06/16 06:22 UTC NOAA

TAF KBBD 160520Z 1606/1706 16010KT P6SM BKN250
FM161000 15010KT P6SM BKN020
FM161500 17012G18KT P6SM SCT035
FM170300 15010KT P6SM SCT100

Example: see airport list